createdAt,value
2022-09-30T00:00:00.000Z,85.18
2022-09-30T00:15:00.000Z,85.09
2022-09-30T00:30:00.000Z,85.19
2022-09-30T00:45:00.000Z,85.46
2022-09-30T01:00:00.000Z,85.55
2022-09-30T01:15:00.000Z,85.58
2022-09-30T01:30:00.000Z,85.18
2022-09-30T01:45:00.000Z,85.01
2022-09-30T02:00:00.000Z,84.68
2022-09-30T02:15:00.000Z,85.08
2022-09-30T02:30:00.000Z,85.07
2022-09-30T02:45:00.000Z,85.52
2022-09-30T03:00:00.000Z,85.47
2022-09-30T03:15:00.000Z,85.4
2022-09-30T03:30:00.000Z,85.29
2022-09-30T03:45:00.000Z,85.53
2022-09-30T04:00:00.000Z,85.86
2022-09-30T04:15:00.000Z,86.09
2022-09-30T04:30:00.000Z,86.18
2022-09-30T04:45:00.000Z,86.17
2022-09-30T05:00:00.000Z,86.21
2022-09-30T05:15:00.000Z,86.15
2022-09-30T05:30:00.000Z,85.92
2022-09-30T05:45:00.000Z,85.97
2022-09-30T06:00:00.000Z,85.67
2022-09-30T06:15:00.000Z,84.79
2022-09-30T06:30:00.000Z,84.12
2022-09-30T06:45:00.000Z,83.41
2022-09-30T07:00:00.000Z,82.53
2022-09-30T07:15:00.000Z,81.87
2022-09-30T07:30:00.000Z,78.79
2022-09-30T07:45:00.000Z,74.71
2022-09-30T08:00:00.000Z,71.41
2022-09-30T08:15:00.000Z,72.09
2022-09-30T08:30:00.000Z,69.56
2022-09-30T08:45:00.000Z,60.08
2022-09-30T09:00:00.000Z,55.88
2022-09-30T09:15:00.000Z,52.83
2022-09-30T09:30:00.000Z,55.55
2022-09-30T09:45:00.000Z,54.38
2022-09-30T10:00:00.000Z,56.34
2022-09-30T10:15:00.000Z,53.12
2022-09-30T10:30:00.000Z,51.43
2022-09-30T10:45:00.000Z,52.57
2022-09-30T11:00:00.000Z,56.45
2022-09-30T11:15:00.000Z,54.34
2022-09-30T11:30:00.000Z,55.16
2022-09-30T11:45:00.000Z,59.91
2022-09-30T12:00:00.000Z,61.88
2022-09-30T12:15:00.000Z,61.48
2022-09-30T12:30:00.000Z,60.88
2022-09-30T12:45:00.000Z,59.26
2022-09-30T13:00:00.000Z,62.18
2022-09-30T13:15:00.000Z,63.04
2022-09-30T13:30:00.000Z,63.12
2022-09-30T13:45:00.000Z,64.56
2022-09-30T14:00:00.000Z,65.74
2022-09-30T14:15:00.000Z,66.45
2022-09-30T14:30:00.000Z,67.11
2022-09-30T14:45:00.000Z,66.95
2022-09-30T15:00:00.000Z,67.97
2022-09-30T15:15:00.000Z,67.78
2022-09-30T15:30:00.000Z,68.31
2022-09-30T15:45:00.000Z,69.07
2022-09-30T16:00:00.000Z,70.53
2022-09-30T16:15:00.000Z,71.4
2022-09-30T16:30:00.000Z,72.7
2022-09-30T16:45:00.000Z,74.18
2022-09-30T17:00:00.000Z,75.84
2022-09-30T17:15:00.000Z,78.45
2022-09-30T17:30:00.000Z,77.97
2022-09-30T17:45:00.000Z,77.3
2022-09-30T18:00:00.000Z,77.7
2022-09-30T18:15:00.000Z,79.15
2022-09-30T18:30:00.000Z,79.47
2022-09-30T18:45:00.000Z,81.83
2022-09-30T19:00:00.000Z,82.7
2022-09-30T19:15:00.000Z,83.42
2022-09-30T19:30:00.000Z,83.36
2022-09-30T19:45:00.000Z,83.51
2022-09-30T20:00:00.000Z,83.95
2022-09-30T20:15:00.000Z,84.27
2022-09-30T20:30:00.000Z,84.24
2022-09-30T20:45:00.000Z,84.39
2022-09-30T21:00:00.000Z,83.89
2022-09-30T21:15:00.000Z,83.37
2022-09-30T21:30:00.000Z,83.22
2022-09-30T21:45:00.000Z,83.47
2022-09-30T22:00:00.000Z,83.23
2022-09-30T22:15:00.000Z,82.96
2022-09-30T22:30:00.000Z,83.44
2022-09-30T22:45:00.000Z,83.65
2022-09-30T23:00:00.000Z,83.13
2022-09-30T23:15:00.000Z,83.36
2022-09-30T23:30:00.000Z,83.11
2022-09-30T23:45:00.000Z,83.84
